Aeroporto :
LOGIN :

Iscrizione | Disclaimer

   EN    FR    IT 

 










Sommario :    VFR   VFR Marginale   IFR   IFR Intensivo   IFR Molto Intensivo
Visibilità : 
Base nubi : 
>= 8 km
>= 3000ft
5 / 8 km
1000 / 3000 ft
1500m / 5 km
500 / 1000 ft
800 / 1500m
200 / 500 ft
< 800m
< 200 ft
Simboli :   Temporali  Nebbia  Neve Forte  Precipitazioni Forti  Vento > 20 kt
SIGMETs :   Varie  Temporali  Ghiacco  Turbolenza  Onda orograficha  Ceneri Vulcaniche






- Altitudine del aeroporto : 319 ft


EIME - Casement Air Base

ULTIMO METAR :
  • 301330Z 26017KT 9999 -DZ BKN006 OVC015 10/09 Q1023

METARs OBSOLETI :
  • 301300Z 25017KT 8000 -DZ BKN006 OVC015 10/09 Q1023
  • 301230Z 25016KT 5000 -DZ OVC007 09/09 Q1023
  • 301200Z 25014KT 9999 -DZ OVC007 09/09 Q1023
  • 301130Z 25016KT 9000 -DZ BKN009 OVC019 09/08 Q1023
  • 301100Z 25016KT 9999 -DZ BKN010 09/08 Q1023

TAF TAF EIME
Valido dal 30 a 12 ore il 30 a 21 ore UTC


301100Z 3012/3021 25015KT 9999 BKN010 BKN020
TEMPO 3012/3016 27018G28KT 4000 -RADZ BKN005
PROB30
TEMPO 3012/3016 2000 BR BKN003
BECMG 3015/3017 29009KT FEW015 BKN040
PROB40
TEMPO 3016/3018 BKN010



MetMap, La meteo Aeronautica in un colpo d'occhio ! - Copyright ORBIFLY Dicembre 2007 - Disclaimer

ORBIFLY MET'MAP TEAM :

Programmazione e sviluppo : Alexandra Zaïnal
Concezione : Baudouin d'Aumeries
Aiuto per la programmazione : Marc-Olivier Méhu
Supporto tecnico e logistico : Manuel Goepfert
Aiuto per la traduzione : Arnaldo La Scala

Contatto : metmap@orbifly.com




FONTI E CREDITI :

   NOAA